sensor_id;sensor_type;location;lat;lon;timestamp;P1;P2;P0
72031;PMS5003;49185;42.320;23.198;2023-05-07T00:02:23;6.00;5.00;1.00
72031;PMS5003;49185;42.320;23.198;2023-05-07T00:04:49;7.00;7.00;2.00
72031;PMS5003;49185;42.320;23.198;2023-05-07T00:07:14;7.33;6.67;4.00
72031;PMS5003;49185;42.320;23.198;2023-05-07T00:09:40;9.00;9.00;3.00
72031;PMS5003;49185;42.320;23.198;2023-05-07T00:12:05;8.00;8.00;4.00
72031;PMS5003;49185;42.320;23.198;2023-05-07T00:14:31;6.00;5.00;2.00
72031;PMS5003;49185;42.320;23.198;2023-05-07T00:16:57;6.00;6.00;3.00
72031;PMS5003;49185;42.320;23.198;2023-05-07T00:19:22;6.33;5.67;2.00
72031;PMS5003;49185;42.320;23.198;2023-05-07T00:21:48;7.67;6.67;2.00
72031;PMS5003;49185;42.320;23.198;2023-05-07T00:24:13;5.00;5.00;2.00
72031;PMS5003;49185;42.320;23.198;2023-05-07T00:26:39;4.00;4.00;1.00
72031;PMS5003;49185;42.320;23.198;2023-05-07T00:29:04;6.67;5.33;0.00
72031;PMS5003;49185;42.320;23.198;2023-05-07T00:31:29;6.00;6.00;2.00
72031;PMS5003;49185;42.320;23.198;2023-05-07T00:33:55;6.00;5.00;3.00
72031;PMS5003;49185;42.320;23.198;2023-05-07T00:36:20;6.67;5.00;2.00
72031;PMS5003;49185;42.320;23.198;2023-05-07T00:38:46;5.00;4.00;2.00
72031;PMS5003;49185;42.320;23.198;2023-05-07T00:41:11;6.00;6.00;3.00
72031;PMS5003;49185;42.320;23.198;2023-05-07T00:43:36;7.67;7.33;3.00
72031;PMS5003;49185;42.320;23.198;2023-05-07T00:46:02;7.00;5.67;3.00
72031;PMS5003;49185;42.320;23.198;2023-05-07T00:48:27;6.33;6.00;2.00
72031;PMS5003;49185;42.320;23.198;2023-05-07T00:50:53;7.00;5.00;3.00
72031;PMS5003;49185;42.320;23.198;2023-05-07T00:53:19;7.00;5.75;2.25
72031;PMS5003;49185;42.320;23.198;2023-05-07T00:55:45;6.00;6.00;1.00
72031;PMS5003;49185;42.320;23.198;2023-05-07T00:58:10;6.00;6.00;3.00
72031;PMS5003;49185;42.320;23.198;2023-05-07T01:00:36;4.00;4.00;2.00
72031;PMS5003;49185;42.320;23.198;2023-05-07T01:03:01;6.00;6.00;1.00
72031;PMS5003;49185;42.320;23.198;2023-05-07T01:05:26;5.00;5.00;2.00
72031;PMS5003;49185;42.320;23.198;2023-05-07T01:07:54;6.75;5.75;2.00
72031;PMS5003;49185;42.320;23.198;2023-05-07T01:10:21;6.00;4.00;1.00
72031;PMS5003;49185;42.320;23.198;2023-05-07T01:12:47;5.00;5.00;1.50
72031;PMS5003;49185;42.320;23.198;2023-05-07T01:15:14;6.00;6.00;3.00
72031;PMS5003;49185;42.320;23.198;2023-05-07T01:17:41;7.00;6.75;2.00
72031;PMS5003;49185;42.320;23.198;2023-05-07T01:20:08;6.00;5.50;1.00
72031;PMS5003;49185;42.320;23.198;2023-05-07T01:22:34;5.00;4.25;1.00
72031;PMS5003;49185;42.320;23.198;2023-05-07T01:25:01;5.00;5.00;0.00
72031;PMS5003;49185;42.320;23.198;2023-05-07T01:27:27;5.00;4.00;1.00
72031;PMS5003;49185;42.320;23.198;2023-05-07T01:29:53;4.00;3.67;1.00
72031;PMS5003;49185;42.320;23.198;2023-05-07T01:32:19;5.00;4.00;0.00
72031;PMS5003;49185;42.320;23.198;2023-05-07T01:34:51;4.50;4.00;1.00
72031;PMS5003;49185;42.320;23.198;2023-05-07T01:37:19;6.25;6.25;3.00
72031;PMS5003;49185;42.320;23.198;2023-05-07T01:39:46;8.00;8.00;4.00
72031;PMS5003;49185;42.320;23.198;2023-05-07T01:42:12;6.25;6.25;2.00
72031;PMS5003;49185;42.320;23.198;2023-05-07T01:44:38;5.00;5.00;2.00
72031;PMS5003;49185;42.320;23.198;2023-05-07T01:47:03;5.00;5.00;1.00
72031;PMS5003;49185;42.320;23.198;2023-05-07T01:49:29;4.00;4.00;1.00
72031;PMS5003;49185;42.320;23.198;2023-05-07T01:51:55;4.00;4.00;1.00
72031;PMS5003;49185;42.320;23.198;2023-05-07T01:54:24;5.33;5.00;0.00
72031;PMS5003;49185;42.320;23.198;2023-05-07T01:56:50;7.50;5.00;1.00
72031;PMS5003;49185;42.320;23.198;2023-05-07T01:59:16;5.00;4.33;1.00
72031;PMS5003;49185;42.320;23.198;2023-05-07T02:01:41;7.00;6.00;0.33
72031;PMS5003;49185;42.320;23.198;2023-05-07T02:04:06;5.00;4.33;1.00
72031;PMS5003;49185;42.320;23.198;2023-05-07T02:06:33;5.00;5.00;1.00
72031;PMS5003;49185;42.320;23.198;2023-05-07T02:08:58;2.67;2.67;1.00
72031;PMS5003;49185;42.320;23.198;2023-05-07T02:11:23;5.00;4.00;1.00
72031;PMS5003;49185;42.320;23.198;2023-05-07T02:13:49;3.00;3.00;1.00
72031;PMS5003;49185;42.320;23.198;2023-05-07T02:16:14;4.00;4.00;0.00
72031;PMS5003;49185;42.320;23.198;2023-05-07T02:18:40;3.33;3.00;0.00
72031;PMS5003;49185;42.320;23.198;2023-05-07T02:21:05;4.00;4.00;0.00
72031;PMS5003;49185;42.320;23.198;2023-05-07T02:23:30;5.00;5.00;0.00
72031;PMS5003;49185;42.320;23.198;2023-05-07T02:25:56;5.00;3.33;0.00
72031;PMS5003;49185;42.320;23.198;2023-05-07T02:28:21;7.00;5.67;1.00
72031;PMS5003;49185;42.320;23.198;2023-05-07T02:30:47;4.33;4.00;3.00
72031;PMS5003;49185;42.320;23.198;2023-05-07T02:33:12;4.00;3.00;2.00
72031;PMS5003;49185;42.320;23.198;2023-05-07T02:35:37;5.00;5.00;1.00
72031;PMS5003;49185;42.320;23.198;2023-05-07T02:56:07;7.75;6.00;3.00
72031;PMS5003;49185;42.320;23.198;2023-05-07T02:58:53;7.75;5.00;3.00
72031;PMS5003;49185;42.320;23.198;2023-05-07T03:01:38;5.00;4.00;2.00
72031;PMS5003;49185;42.320;23.198;2023-05-07T03:04:24;6.00;6.00;3.00
72031;PMS5003;49185;42.320;23.198;2023-05-07T03:07:10;4.25;4.00;1.00
72031;PMS5003;49185;42.320;23.198;2023-05-07T03:09:55;4.00;3.50;1.00
72031;PMS5003;49185;42.320;23.198;2023-05-07T03:12:41;5.00;5.00;2.00
72031;PMS5003;49185;42.320;23.198;2023-05-07T03:15:27;5.00;5.00;1.00
72031;PMS5003;49185;42.320;23.198;2023-05-07T03:18:12;7.00;6.25;1.25
72031;PMS5003;49185;42.320;23.198;2023-05-07T03:20:58;6.00;6.00;3.00
72031;PMS5003;49185;42.320;23.198;2023-05-07T03:23:44;6.00;4.75;2.00
72031;PMS5003;49185;42.320;23.198;2023-05-07T03:26:30;7.75;7.00;2.00
72031;PMS5003;49185;42.320;23.198;2023-05-07T03:29:15;7.00;6.75;2.00
72031;PMS5003;49185;42.320;23.198;2023-05-07T03:32:01;5.00;4.00;2.00
72031;PMS5003;49185;42.320;23.198;2023-05-07T03:34:47;7.00;7.00;2.25
72031;PMS5003;49185;42.320;23.198;2023-05-07T03:37:32;6.00;6.00;3.00
72031;PMS5003;49185;42.320;23.198;2023-05-07T03:40:18;6.00;5.00;3.00
72031;PMS5003;49185;42.320;23.198;2023-05-07T03:43:04;6.25;5.25;2.00
72031;PMS5003;49185;42.320;23.198;2023-05-07T03:45:50;8.00;8.00;3.00
72031;PMS5003;49185;42.320;23.198;2023-05-07T03:48:15;7.33;7.00;3.00
72031;PMS5003;49185;42.320;23.198;2023-05-07T03:50:40;12.00;10.00;5.00
72031;PMS5003;49185;42.320;23.198;2023-05-07T03:53:06;8.67;8.00;4.00
72031;PMS5003;49185;42.320;23.198;2023-05-07T03:55:31;7.00;5.33;3.00
72031;PMS5003;49185;42.320;23.198;2023-05-07T03:57:57;7.00;7.00;3.00
72031;PMS5003;49185;42.320;23.198;2023-05-07T04:00:22;7.33;7.33;2.00
72031;PMS5003;49185;42.320;23.198;2023-05-07T04:02:47;7.00;6.33;2.00
72031;PMS5003;49185;42.320;23.198;2023-05-07T04:05:13;6.00;5.00;1.00
72031;PMS5003;49185;42.320;23.198;2023-05-07T04:07:39;8.00;5.50;2.25
72031;PMS5003;49185;42.320;23.198;2023-05-07T04:10:04;8.00;7.67;3.00
72031;PMS5003;49185;42.320;23.198;2023-05-07T04:12:30;8.00;7.00;3.00
72031;PMS5003;49185;42.320;23.198;2023-05-07T04:14:55;8.00;7.00;4.00
72031;PMS5003;49185;42.320;23.198;2023-05-07T04:17:21;8.00;7.00;3.00
72031;PMS5003;49185;42.320;23.198;2023-05-07T04:19:46;7.00;6.00;3.00
72031;PMS5003;49185;42.320;23.198;2023-05-07T04:22:12;7.00;5.00;2.00
72031;PMS5003;49185;42.320;23.198;2023-05-07T04:24:37;7.00;6.00;3.00
72031;PMS5003;49185;42.320;23.198;2023-05-07T04:27:02;7.00;7.00;3.00
72031;PMS5003;49185;42.320;23.198;2023-05-07T04:29:28;10.00;8.00;2.00
72031;PMS5003;49185;42.320;23.198;2023-05-07T04:31:53;9.00;8.67;2.00
72031;PMS5003;49185;42.320;23.198;2023-05-07T04:34:19;7.00;7.00;1.33
72031;PMS5003;49185;42.320;23.198;2023-05-07T04:36:44;9.67;9.33;5.33
72031;PMS5003;49185;42.320;23.198;2023-05-07T04:39:09;14.00;13.33;6.67
72031;PMS5003;49185;42.320;23.198;2023-05-07T04:41:35;17.33;17.00;7.00
72031;PMS5003;49185;42.320;23.198;2023-05-07T04:44:01;18.00;16.50;5.25
72031;PMS5003;49185;42.320;23.198;2023-05-07T04:46:26;13.00;12.00;5.00
72031;PMS5003;49185;42.320;23.198;2023-05-07T04:48:52;11.33;9.00;4.00
72031;PMS5003;49185;42.320;23.198;2023-05-07T04:51:17;7.00;7.00;3.00
72031;PMS5003;49185;42.320;23.198;2023-05-07T04:53:43;6.00;6.00;2.00
72031;PMS5003;49185;42.320;23.198;2023-05-07T04:56:08;6.67;6.33;2.00
72031;PMS5003;49185;42.320;23.198;2023-05-07T04:58:34;7.00;7.00;3.00
72031;PMS5003;49185;42.320;23.198;2023-05-07T05:00:59;7.00;7.00;3.00
72031;PMS5003;49185;42.320;23.198;2023-05-07T05:03:25;5.33;5.33;2.00
72031;PMS5003;49185;42.320;23.198;2023-05-07T05:05:50;5.67;5.67;3.67
72031;PMS5003;49185;42.320;23.198;2023-05-07T05:08:16;7.00;6.00;2.00
72031;PMS5003;49185;42.320;23.198;2023-05-07T05:10:42;6.33;5.33;2.00
72031;PMS5003;49185;42.320;23.198;2023-05-07T05:13:07;6.00;5.00;2.00
72031;PMS5003;49185;42.320;23.198;2023-05-07T05:15:32;8.00;7.00;2.00
72031;PMS5003;49185;42.320;23.198;2023-05-07T05:17:58;8.67;8.00;3.00
72031;PMS5003;49185;42.320;23.198;2023-05-07T05:20:23;6.00;6.00;2.00
72031;PMS5003;49185;42.320;23.198;2023-05-07T05:22:49;6.00;6.00;2.00
72031;PMS5003;49185;42.320;23.198;2023-05-07T05:25:14;7.00;6.00;2.00
72031;PMS5003;49185;42.320;23.198;2023-05-07T05:27:40;6.67;6.67;2.00
72031;PMS5003;49185;42.320;23.198;2023-05-07T05:30:08;7.75;6.75;3.00
72031;PMS5003;49185;42.320;23.198;2023-05-07T05:32:34;6.00;6.00;3.00
72031;PMS5003;49185;42.320;23.198;2023-05-07T05:35:00;7.00;6.00;2.00
72031;PMS5003;49185;42.320;23.198;2023-05-07T05:37:25;6.00;6.00;2.00
72031;PMS5003;49185;42.320;23.198;2023-05-07T05:39:50;8.00;7.00;3.00
72031;PMS5003;49185;42.320;23.198;2023-05-07T05:42:16;6.00;5.33;2.00
72031;PMS5003;49185;42.320;23.198;2023-05-07T05:44:41;9.00;8.00;5.00
72031;PMS5003;49185;42.320;23.198;2023-05-07T05:47:07;10.67;7.00;3.00
72031;PMS5003;49185;42.320;23.198;2023-05-07T05:49:32;8.00;7.00;2.33
72031;PMS5003;49185;42.320;23.198;2023-05-07T05:51:58;8.00;7.00;5.00
72031;PMS5003;49185;42.320;23.198;2023-05-07T05:54:23;10.00;10.00;5.00
72031;PMS5003;49185;42.320;23.198;2023-05-07T05:56:49;11.33;9.00;5.00
72031;PMS5003;49185;42.320;23.198;2023-05-07T05:59:14;11.00;9.00;4.00
72031;PMS5003;49185;42.320;23.198;2023-05-07T06:01:40;9.00;9.00;5.00
72031;PMS5003;49185;42.320;23.198;2023-05-07T06:04:05;10.00;10.00;5.00
72031;PMS5003;49185;42.320;23.198;2023-05-07T06:06:31;10.00;8.67;4.00
72031;PMS5003;49185;42.320;23.198;2023-05-07T06:08:56;9.00;9.00;4.00
72031;PMS5003;49185;42.320;23.198;2023-05-07T06:11:22;6.00;6.00;4.00
72031;PMS5003;49185;42.320;23.198;2023-05-07T06:13:47;7.00;6.67;3.67
72031;PMS5003;49185;42.320;23.198;2023-05-07T06:16:13;8.00;8.00;4.00
72031;PMS5003;49185;42.320;23.198;2023-05-07T06:18:39;7.00;6.25;3.00
72031;PMS5003;49185;42.320;23.198;2023-05-07T06:21:05;6.00;6.00;4.00
72031;PMS5003;49185;42.320;23.198;2023-05-07T06:23:30;5.00;5.00;3.00
72031;PMS5003;49185;42.320;23.198;2023-05-07T06:25:56;6.00;6.00;2.00
72031;PMS5003;49185;42.320;23.198;2023-05-07T06:28:21;5.00;5.00;1.33
72031;PMS5003;49185;42.320;23.198;2023-05-07T06:30:46;4.67;4.67;1.00
72031;PMS5003;49185;42.320;23.198;2023-05-07T06:33:12;5.00;5.00;1.00
72031;PMS5003;49185;42.320;23.198;2023-05-07T06:35:37;7.00;7.00;1.00
72031;PMS5003;49185;42.320;23.198;2023-05-07T06:38:03;4.00;4.00;3.00
72031;PMS5003;49185;42.320;23.198;2023-05-07T06:40:28;6.00;5.00;2.00
72031;PMS5003;49185;42.320;23.198;2023-05-07T06:42:53;6.00;6.00;2.00
72031;PMS5003;49185;42.320;23.198;2023-05-07T06:45:19;7.67;6.67;4.00
72031;PMS5003;49185;42.320;23.198;2023-05-07T06:47:45;6.00;6.00;3.00
72031;PMS5003;49185;42.320;23.198;2023-05-07T06:50:10;6.00;5.00;2.00
72031;PMS5003;49185;42.320;23.198;2023-05-07T06:52:36;6.00;6.00;1.00
72031;PMS5003;49185;42.320;23.198;2023-05-07T06:55:02;7.00;7.00;2.00
72031;PMS5003;49185;42.320;23.198;2023-05-07T06:57:28;6.00;6.00;4.00
72031;PMS5003;49185;42.320;23.198;2023-05-07T06:59:53;7.00;7.00;3.00
72031;PMS5003;49185;42.320;23.198;2023-05-07T07:02:18;7.00;7.00;3.00
72031;PMS5003;49185;42.320;23.198;2023-05-07T07:04:44;7.00;7.00;3.00
72031;PMS5003;49185;42.320;23.198;2023-05-07T07:07:09;7.00;7.00;3.00
72031;PMS5003;49185;42.320;23.198;2023-05-07T07:09:35;7.00;7.00;3.00
72031;PMS5003;49185;42.320;23.198;2023-05-07T07:12:00;7.33;7.33;3.00
72031;PMS5003;49185;42.320;23.198;2023-05-07T07:14:25;5.00;5.00;2.00
72031;PMS5003;49185;42.320;23.198;2023-05-07T07:16:51;6.00;5.00;2.67
72031;PMS5003;49185;42.320;23.198;2023-05-07T07:19:16;4.00;4.00;2.67
72031;PMS5003;49185;42.320;23.198;2023-05-07T07:21:42;4.00;3.00;1.00
72031;PMS5003;49185;42.320;23.198;2023-05-07T07:24:07;3.00;3.00;1.00
72031;PMS5003;49185;42.320;23.198;2023-05-07T07:26:33;2.67;2.33;2.00
72031;PMS5003;49185;42.320;23.198;2023-05-07T07:28:58;4.00;4.00;2.00
72031;PMS5003;49185;42.320;23.198;2023-05-07T07:31:23;5.00;5.00;3.00
72031;PMS5003;49185;42.320;23.198;2023-05-07T07:33:49;5.33;5.00;1.00
72031;PMS5003;49185;42.320;23.198;2023-05-07T07:36:14;7.00;6.00;2.00
72031;PMS5003;49185;42.320;23.198;2023-05-07T07:38:40;5.00;4.00;2.00
72031;PMS5003;49185;42.320;23.198;2023-05-07T07:41:07;6.00;4.00;1.00
72031;PMS5003;49185;42.320;23.198;2023-05-07T07:43:33;5.00;5.00;2.00
72031;PMS5003;49185;42.320;23.198;2023-05-07T07:45:58;4.00;4.00;1.00
72031;PMS5003;49185;42.320;23.198;2023-05-07T07:48:24;5.00;4.00;1.00
72031;PMS5003;49185;42.320;23.198;2023-05-07T07:50:49;4.00;3.00;0.00
72031;PMS5003;49185;42.320;23.198;2023-05-07T07:53:15;4.00;4.00;1.00
72031;PMS5003;49185;42.320;23.198;2023-05-07T07:55:40;2.33;2.33;1.00
72031;PMS5003;49185;42.320;23.198;2023-05-07T07:58:06;2.00;2.00;0.00
72031;PMS5003;49185;42.320;23.198;2023-05-07T08:00:31;3.67;3.67;1.00
72031;PMS5003;49185;42.320;23.198;2023-05-07T08:02:57;5.00;4.00;1.00
72031;PMS5003;49185;42.320;23.198;2023-05-07T08:05:23;4.33;4.33;1.00
72031;PMS5003;49185;42.320;23.198;2023-05-07T08:07:48;5.75;5.50;2.00
72031;PMS5003;49185;42.320;23.198;2023-05-07T08:10:14;4.00;4.00;1.67
72031;PMS5003;49185;42.320;23.198;2023-05-07T08:12:39;5.00;4.67;1.00
72031;PMS5003;49185;42.320;23.198;2023-05-07T08:15:05;5.00;4.00;2.00
72031;PMS5003;49185;42.320;23.198;2023-05-07T08:17:31;6.00;5.00;2.00
72031;PMS5003;49185;42.320;23.198;2023-05-07T08:19:56;5.33;5.00;2.00
72031;PMS5003;49185;42.320;23.198;2023-05-07T08:22:21;7.00;6.00;3.00
72031;PMS5003;49185;42.320;23.198;2023-05-07T08:24:47;5.33;5.33;2.00
72031;PMS5003;49185;42.320;23.198;2023-05-07T08:27:12;4.00;4.00;1.00
72031;PMS5003;49185;42.320;23.198;2023-05-07T08:29:38;6.33;6.00;2.33
72031;PMS5003;49185;42.320;23.198;2023-05-07T08:32:03;6.00;6.00;3.00
72031;PMS5003;49185;42.320;23.198;2023-05-07T08:34:28;6.00;5.00;2.00
72031;PMS5003;49185;42.320;23.198;2023-05-07T08:36:54;5.00;5.00;3.00
72031;PMS5003;49185;42.320;23.198;2023-05-07T08:39:20;7.00;6.00;3.00
72031;PMS5003;49185;42.320;23.198;2023-05-07T08:41:45;6.00;5.33;2.00
72031;PMS5003;49185;42.320;23.198;2023-05-07T08:44:14;5.00;5.00;2.00
72031;PMS5003;49185;42.320;23.198;2023-05-07T08:46:40;3.00;3.00;1.00
72031;PMS5003;49185;42.320;23.198;2023-05-07T08:49:06;4.00;4.00;1.00
72031;PMS5003;49185;42.320;23.198;2023-05-07T08:51:32;4.00;3.00;0.00
72031;PMS5003;49185;42.320;23.198;2023-05-07T08:53:58;2.00;2.00;0.00
72031;PMS5003;49185;42.320;23.198;2023-05-07T08:56:26;2.00;2.00;0.50
72031;PMS5003;49185;42.320;23.198;2023-05-07T08:58:51;2.00;2.00;0.00
72031;PMS5003;49185;42.320;23.198;2023-05-07T09:01:17;4.00;4.00;0.00
72031;PMS5003;49185;42.320;23.198;2023-05-07T09:03:45;4.00;4.00;1.00
72031;PMS5003;49185;42.320;23.198;2023-05-07T09:06:12;4.00;3.25;1.00
72031;PMS5003;49185;42.320;23.198;2023-05-07T09:08:37;4.00;3.00;0.00
72031;PMS5003;49185;42.320;23.198;2023-05-07T09:11:03;3.00;3.00;1.00
72031;PMS5003;49185;42.320;23.198;2023-05-07T09:13:28;4.00;4.00;0.00
72031;PMS5003;49185;42.320;23.198;2023-05-07T09:15:54;4.33;4.33;0.00
72031;PMS5003;49185;42.320;23.198;2023-05-07T09:18:20;3.50;3.00;0.00
72031;PMS5003;49185;42.320;23.198;2023-05-07T09:20:45;4.00;3.00;0.00
72031;PMS5003;49185;42.320;23.198;2023-05-07T09:23:11;3.67;2.67;0.00
72031;PMS5003;49185;42.320;23.198;2023-05-07T09:25:36;3.00;1.00;0.00
72031;PMS5003;49185;42.320;23.198;2023-05-07T09:28:02;4.00;4.00;0.00
72031;PMS5003;49185;42.320;23.198;2023-05-07T09:30:29;2.50;2.00;0.00
72031;PMS5003;49185;42.320;23.198;2023-05-07T09:32:56;5.00;5.00;0.00
72031;PMS5003;49185;42.320;23.198;2023-05-07T09:35:22;3.50;3.50;0.00
72031;PMS5003;49185;42.320;23.198;2023-05-07T09:37:48;2.00;2.00;1.00
72031;PMS5003;49185;42.320;23.198;2023-05-07T09:40:23;2.00;1.00;0.00
72031;PMS5003;49185;42.320;23.198;2023-05-07T09:42:50;3.00;3.00;0.00
72031;PMS5003;49185;42.320;23.198;2023-05-07T09:45:16;2.00;2.00;0.00
72031;PMS5003;49185;42.320;23.198;2023-05-07T09:47:46;3.75;3.75;0.00
72031;PMS5003;49185;42.320;23.198;2023-05-07T09:50:14;3.00;3.00;0.00
72031;PMS5003;49185;42.320;23.198;2023-05-07T09:52:41;3.00;3.00;0.00
72031;PMS5003;49185;42.320;23.198;2023-05-07T09:55:09;3.75;3.75;0.00
72031;PMS5003;49185;42.320;23.198;2023-05-07T09:57:35;2.00;2.00;0.00
72031;PMS5003;49185;42.320;23.198;2023-05-07T10:00:01;3.33;3.33;0.00
72031;PMS5003;49185;42.320;23.198;2023-05-07T10:02:27;3.25;3.25;0.00
72031;PMS5003;49185;42.320;23.198;2023-05-07T10:04:55;4.50;4.50;1.50
72031;PMS5003;49185;42.320;23.198;2023-05-07T10:07:22;2.00;2.00;0.00
72031;PMS5003;49185;42.320;23.198;2023-05-07T10:09:48;6.67;5.67;1.67
72031;PMS5003;49185;42.320;23.198;2023-05-07T10:12:15;5.50;5.00;2.00
72031;PMS5003;49185;42.320;23.198;2023-05-07T10:14:42;3.00;3.00;2.00
72031;PMS5003;49185;42.320;23.198;2023-05-07T10:17:09;3.00;2.75;1.00
72031;PMS5003;49185;42.320;23.198;2023-05-07T10:19:37;3.00;3.00;1.00
72031;PMS5003;49185;42.320;23.198;2023-05-07T10:22:04;4.50;4.00;1.00
72031;PMS5003;49185;42.320;23.198;2023-05-07T10:24:32;5.00;4.25;1.50
72031;PMS5003;49185;42.320;23.198;2023-05-07T10:26:58;6.00;5.00;3.00
72031;PMS5003;49185;42.320;23.198;2023-05-07T10:34:25;4.00;3.50;2.00
72031;PMS5003;49185;42.320;23.198;2023-05-07T10:36:54;3.50;3.50;1.00
72031;PMS5003;49185;42.320;23.198;2023-05-07T10:39:21;4.75;3.00;1.00
72031;PMS5003;49185;42.320;23.198;2023-05-07T10:41:47;3.00;3.00;0.00
72031;PMS5003;49185;42.320;23.198;2023-05-07T10:44:26;3.00;3.00;0.00
72031;PMS5003;49185;42.320;23.198;2023-05-07T10:47:05;5.00;5.00;0.00
72031;PMS5003;49185;42.320;23.198;2023-05-07T10:49:32;3.75;3.75;0.00
72031;PMS5003;49185;42.320;23.198;2023-05-07T10:52:19;3.00;3.00;0.00
72031;PMS5003;49185;42.320;23.198;2023-05-07T10:54:44;4.00;4.00;0.00
72031;PMS5003;49185;42.320;23.198;2023-05-07T10:59:58;3.00;3.00;0.00
72031;PMS5003;49185;42.320;23.198;2023-05-07T11:02:25;5.67;3.33;1.00
72031;PMS5003;49185;42.320;23.198;2023-05-07T11:05:24;4.00;3.00;1.00
72031;PMS5003;49185;42.320;23.198;2023-05-07T11:07:56;4.00;4.00;1.00
72031;PMS5003;49185;42.320;23.198;2023-05-07T11:10:23;3.00;3.00;1.00
72031;PMS5003;49185;42.320;23.198;2023-05-07T11:13:08;4.00;4.00;1.00
72031;PMS5003;49185;42.320;23.198;2023-05-07T11:15:34;4.00;3.00;1.00
72031;PMS5003;49185;42.320;23.198;2023-05-07T11:18:04;3.00;3.00;1.00
72031;PMS5003;49185;42.320;23.198;2023-05-07T11:25:59;2.50;2.50;1.00
72031;PMS5003;49185;42.320;23.198;2023-05-07T11:28:39;5.25;5.25;2.75
72031;PMS5003;49185;42.320;23.198;2023-05-07T11:31:05;5.00;5.00;2.00
72031;PMS5003;49185;42.320;23.198;2023-05-07T11:33:31;6.00;6.00;1.67
72031;PMS5003;49185;42.320;23.198;2023-05-07T11:35:57;5.00;4.00;2.00
72031;PMS5003;49185;42.320;23.198;2023-05-07T11:38:24;3.00;3.00;0.00
72031;PMS5003;49185;42.320;23.198;2023-05-07T11:40:51;3.00;3.00;0.00
72031;PMS5003;49185;42.320;23.198;2023-05-07T11:43:17;4.75;4.00;0.00
72031;PMS5003;49185;42.320;23.198;2023-05-07T11:45:44;3.33;3.33;1.00
72031;PMS5003;49185;42.320;23.198;2023-05-07T11:48:10;3.00;3.00;1.00
72031;PMS5003;49185;42.320;23.198;2023-05-07T11:50:37;6.75;5.00;1.75
72031;PMS5003;49185;42.320;23.198;2023-05-07T11:53:19;7.00;5.75;1.75
72031;PMS5003;49185;42.320;23.198;2023-05-07T11:55:45;4.00;4.00;1.00
72031;PMS5003;49185;42.320;23.198;2023-05-07T11:58:12;2.00;2.00;1.00
72031;PMS5003;49185;42.320;23.198;2023-05-07T12:00:52;3.00;3.00;0.00
72031;PMS5003;49185;42.320;23.198;2023-05-07T12:03:18;3.00;3.00;0.00
72031;PMS5003;49185;42.320;23.198;2023-05-07T12:05:44;3.00;3.00;0.00
72031;PMS5003;49185;42.320;23.198;2023-05-07T12:08:14;3.00;2.00;0.00
72031;PMS5003;49185;42.320;23.198;2023-05-07T12:10:40;4.50;3.50;0.00
72031;PMS5003;49185;42.320;23.198;2023-05-07T12:13:16;2.00;2.00;0.00
72031;PMS5003;49185;42.320;23.198;2023-05-07T12:15:46;3.00;3.00;0.00
72031;PMS5003;49185;42.320;23.198;2023-05-07T12:18:12;2.00;2.00;1.00
72031;PMS5003;49185;42.320;23.198;2023-05-07T12:20:38;1.50;1.50;1.00
72031;PMS5003;49185;42.320;23.198;2023-05-07T12:23:04;4.00;4.00;2.00
72031;PMS5003;49185;42.320;23.198;2023-05-07T12:25:31;3.00;2.00;2.00
72031;PMS5003;49185;42.320;23.198;2023-05-07T12:27:56;2.00;0.00;0.00
72031;PMS5003;49185;42.320;23.198;2023-05-07T12:30:22;2.00;0.00;0.00
72031;PMS5003;49185;42.320;23.198;2023-05-07T12:32:47;2.00;1.00;0.00
72031;PMS5003;49185;42.320;23.198;2023-05-07T12:35:25;2.00;2.00;0.00
72031;PMS5003;49185;42.320;23.198;2023-05-07T12:37:54;3.00;2.00;0.00
72031;PMS5003;49185;42.320;23.198;2023-05-07T12:40:21;2.00;2.00;0.00
72031;PMS5003;49185;42.320;23.198;2023-05-07T12:42:46;2.00;2.00;0.00
72031;PMS5003;49185;42.320;23.198;2023-05-07T12:45:18;2.00;2.00;1.00
72031;PMS5003;49185;42.320;23.198;2023-05-07T12:47:44;3.00;3.00;1.00
72031;PMS5003;49185;42.320;23.198;2023-05-07T12:50:10;2.25;2.25;1.00
72031;PMS5003;49185;42.320;23.198;2023-05-07T12:52:36;3.67;3.00;0.00
72031;PMS5003;49185;42.320;23.198;2023-05-07T12:55:05;3.00;3.00;0.00
72031;PMS5003;49185;42.320;23.198;2023-05-07T12:57:37;3.00;3.00;0.00
72031;PMS5003;49185;42.320;23.198;2023-05-07T13:00:03;4.00;4.00;0.25
72031;PMS5003;49185;42.320;23.198;2023-05-07T13:02:32;4.00;4.00;1.00
72031;PMS5003;49185;42.320;23.198;2023-05-07T13:04:58;1.75;1.75;1.00
72031;PMS5003;49185;42.320;23.198;2023-05-07T13:07:24;3.00;3.00;1.00
72031;PMS5003;49185;42.320;23.198;2023-05-07T13:09:50;4.00;4.00;1.00
72031;PMS5003;49185;42.320;23.198;2023-05-07T13:12:15;4.00;4.00;1.00
72031;PMS5003;49185;42.320;23.198;2023-05-07T13:14:41;4.00;4.00;0.00
72031;PMS5003;49185;42.320;23.198;2023-05-07T13:17:06;4.00;4.00;0.00
72031;PMS5003;49185;42.320;23.198;2023-05-07T13:19:32;2.33;2.33;0.00
72031;PMS5003;49185;42.320;23.198;2023-05-07T13:21:57;3.00;3.00;0.00
72031;PMS5003;49185;42.320;23.198;2023-05-07T13:24:22;2.00;2.00;0.00
72031;PMS5003;49185;42.320;23.198;2023-05-07T13:26:48;3.00;3.00;0.33
72031;PMS5003;49185;42.320;23.198;2023-05-07T13:29:13;5.00;4.00;1.00
72031;PMS5003;49185;42.320;23.198;2023-05-07T13:31:38;3.00;3.00;0.00
72031;PMS5003;49185;42.320;23.198;2023-05-07T13:34:04;3.00;3.00;0.00
72031;PMS5003;49185;42.320;23.198;2023-05-07T13:36:29;3.00;3.00;0.00
72031;PMS5003;49185;42.320;23.198;2023-05-07T13:38:55;2.00;2.00;0.00
72031;PMS5003;49185;42.320;23.198;2023-05-07T13:41:20;1.00;0.00;0.00
72031;PMS5003;49185;42.320;23.198;2023-05-07T13:43:45;1.00;0.00;0.00
72031;PMS5003;49185;42.320;23.198;2023-05-07T13:46:11;2.00;1.00;0.00
72031;PMS5003;49185;42.320;23.198;2023-05-07T13:48:36;3.00;2.00;0.00
72031;PMS5003;49185;42.320;23.198;2023-05-07T13:51:01;3.00;3.00;0.00
72031;PMS5003;49185;42.320;23.198;2023-05-07T13:53:27;3.00;3.00;0.00
72031;PMS5003;49185;42.320;23.198;2023-05-07T13:55:52;3.00;3.00;0.00
72031;PMS5003;49185;42.320;23.198;2023-05-07T13:58:18;3.33;3.00;0.00
72031;PMS5003;49185;42.320;23.198;2023-05-07T14:00:43;3.00;3.00;0.00
72031;PMS5003;49185;42.320;23.198;2023-05-07T14:03:09;3.00;3.00;1.00
72031;PMS5003;49185;42.320;23.198;2023-05-07T14:05:34;4.00;4.00;1.00
72031;PMS5003;49185;42.320;23.198;2023-05-07T14:07:59;3.00;2.00;1.00
72031;PMS5003;49185;42.320;23.198;2023-05-07T14:10:25;2.00;2.00;0.00
72031;PMS5003;49185;42.320;23.198;2023-05-07T14:12:50;4.00;4.00;0.33
72031;PMS5003;49185;42.320;23.198;2023-05-07T14:15:16;3.33;3.33;0.00
72031;PMS5003;49185;42.320;23.198;2023-05-07T14:17:42;2.33;2.33;0.00
72031;PMS5003;49185;42.320;23.198;2023-05-07T14:20:08;3.00;3.00;0.00
72031;PMS5003;49185;42.320;23.198;2023-05-07T14:22:33;3.50;3.00;1.00
72031;PMS5003;49185;42.320;23.198;2023-05-07T14:24:59;3.00;2.00;0.00
72031;PMS5003;49185;42.320;23.198;2023-05-07T14:27:24;2.00;2.00;1.00
72031;PMS5003;49185;42.320;23.198;2023-05-07T14:29:50;4.00;4.00;1.00
72031;PMS5003;49185;42.320;23.198;2023-05-07T14:32:15;1.00;1.00;0.00
72031;PMS5003;49185;42.320;23.198;2023-05-07T14:34:41;2.00;2.00;0.00
72031;PMS5003;49185;42.320;23.198;2023-05-07T14:37:06;3.00;2.00;0.00
72031;PMS5003;49185;42.320;23.198;2023-05-07T14:39:32;3.00;2.00;0.00
72031;PMS5003;49185;42.320;23.198;2023-05-07T14:41:57;1.00;1.00;0.00